sensor_id;sensor_type;location;lat;lon;timestamp;temperature;humidity
68867;SHT30;56451;44.804;20.476;2023-07-13T00:02:24;31.05;50.42
68867;SHT30;56451;44.804;20.476;2023-07-13T00:04:50;31.11;51.05
68867;SHT30;56451;44.804;20.476;2023-07-13T00:07:16;31.05;50.68
68867;SHT30;56451;44.804;20.476;2023-07-13T00:09:48;31.07;50.60
68867;SHT30;56451;44.804;20.476;2023-07-13T00:12:26;31.05;50.34
68867;SHT30;56451;44.804;20.476;2023-07-13T00:14:53;31.01;50.48
68867;SHT30;56451;44.804;20.476;2023-07-13T00:17:18;31.01;50.48
68867;SHT30;56451;44.804;20.476;2023-07-13T00:19:44;30.96;49.95
68867;SHT30;56451;44.804;20.476;2023-07-13T00:22:11;30.98;49.88
68867;SHT30;56451;44.804;20.476;2023-07-13T00:24:37;30.95;49.95
68867;SHT30;56451;44.804;20.476;2023-07-13T00:27:10;30.95;50.27
68867;SHT30;56451;44.804;20.476;2023-07-13T00:29:37;30.94;50.69
68867;SHT30;56451;44.804;20.476;2023-07-13T00:32:04;30.94;50.86
68867;SHT30;56451;44.804;20.476;2023-07-13T00:34:30;30.91;51.19
68867;SHT30;56451;44.804;20.476;2023-07-13T00:36:56;30.90;51.08
68867;SHT30;56451;44.804;20.476;2023-07-13T00:39:22;30.90;51.31
68867;SHT30;56451;44.804;20.476;2023-07-13T00:41:49;30.87;50.78
68867;SHT30;56451;44.804;20.476;2023-07-13T00:44:16;30.85;50.84
68867;SHT30;56451;44.804;20.476;2023-07-13T00:46:42;30.80;51.30
68867;SHT30;56451;44.804;20.476;2023-07-13T00:49:10;30.84;51.77
68867;SHT30;56451;44.804;20.476;2023-07-13T00:52:02;30.81;51.09
68867;SHT30;56451;44.804;20.476;2023-07-13T00:54:30;30.74;51.54
68867;SHT30;56451;44.804;20.476;2023-07-13T00:57:01;30.73;51.23
68867;SHT30;56451;44.804;20.476;2023-07-13T00:59:29;30.71;51.61
68867;SHT30;56451;44.804;20.476;2023-07-13T01:01:55;30.68;51.11
68867;SHT30;56451;44.804;20.476;2023-07-13T01:04:24;30.68;51.36
68867;SHT30;56451;44.804;20.476;2023-07-13T01:06:50;30.67;51.30
68867;SHT30;56451;44.804;20.476;2023-07-13T01:09:16;30.65;52.47
68867;SHT30;56451;44.804;20.476;2023-07-13T01:11:43;30.65;52.41
68867;SHT30;56451;44.804;20.476;2023-07-13T01:14:10;30.61;52.31
68867;SHT30;56451;44.804;20.476;2023-07-13T01:16:37;30.60;52.39
68867;SHT30;56451;44.804;20.476;2023-07-13T01:19:32;30.61;52.67
68867;SHT30;56451;44.804;20.476;2023-07-13T01:22:08;30.59;52.90
68867;SHT30;56451;44.804;20.476;2023-07-13T01:24:39;30.57;52.05
68867;SHT30;56451;44.804;20.476;2023-07-13T01:27:07;30.54;51.70
68867;SHT30;56451;44.804;20.476;2023-07-13T01:29:35;30.53;51.95
68867;SHT30;56451;44.804;20.476;2023-07-13T01:32:17;30.54;52.36
68867;SHT30;56451;44.804;20.476;2023-07-13T01:34:47;30.52;51.76
68867;SHT30;56451;44.804;20.476;2023-07-13T01:37:13;30.50;52.36
68867;SHT30;56451;44.804;20.476;2023-07-13T01:39:39;30.48;52.02
68867;SHT30;56451;44.804;20.476;2023-07-13T01:42:06;30.52;52.31
68867;SHT30;56451;44.804;20.476;2023-07-13T01:44:32;30.47;52.81
68867;SHT30;56451;44.804;20.476;2023-07-13T01:46:58;30.46;52.94
68867;SHT30;56451;44.804;20.476;2023-07-13T01:49:24;30.44;53.00
68867;SHT30;56451;44.804;20.476;2023-07-13T01:51:49;30.43;53.16
68867;SHT30;56451;44.804;20.476;2023-07-13T01:54:15;30.41;53.03
68867;SHT30;56451;44.804;20.476;2023-07-13T01:56:42;30.40;53.52
68867;SHT30;56451;44.804;20.476;2023-07-13T01:59:09;30.40;53.59
68867;SHT30;56451;44.804;20.476;2023-07-13T02:01:35;30.37;53.45
68867;SHT30;56451;44.804;20.476;2023-07-13T02:04:01;30.35;53.51
68867;SHT30;56451;44.804;20.476;2023-07-13T02:06:28;30.33;53.23
68867;SHT30;56451;44.804;20.476;2023-07-13T02:08:54;30.30;53.31
68867;SHT30;56451;44.804;20.476;2023-07-13T02:11:20;30.29;53.09
68867;SHT30;56451;44.804;20.476;2023-07-13T02:13:47;30.26;53.56
68867;SHT30;56451;44.804;20.476;2023-07-13T02:16:12;30.23;53.72
68867;SHT30;56451;44.804;20.476;2023-07-13T02:18:38;30.23;53.74
68867;SHT30;56451;44.804;20.476;2023-07-13T02:21:04;30.22;53.72
68867;SHT30;56451;44.804;20.476;2023-07-13T02:23:30;30.22;53.58
68867;SHT30;56451;44.804;20.476;2023-07-13T02:25:57;30.20;53.41
68867;SHT30;56451;44.804;20.476;2023-07-13T02:28:23;30.17;53.19
68867;SHT30;56451;44.804;20.476;2023-07-13T02:33:40;30.15;53.57
68867;SHT30;56451;44.804;20.476;2023-07-13T02:36:07;30.13;53.91
68867;SHT30;56451;44.804;20.476;2023-07-13T02:38:34;30.08;54.07
68867;SHT30;56451;44.804;20.476;2023-07-13T02:41:04;30.08;54.23
68867;SHT30;56451;44.804;20.476;2023-07-13T02:43:30;30.09;54.37
68867;SHT30;56451;44.804;20.476;2023-07-13T02:45:58;30.04;54.71
68867;SHT30;56451;44.804;20.476;2023-07-13T02:48:30;30.01;54.57
68867;SHT30;56451;44.804;20.476;2023-07-13T02:50:57;30.01;54.24
68867;SHT30;56451;44.804;20.476;2023-07-13T02:53:22;29.99;54.58
68867;SHT30;56451;44.804;20.476;2023-07-13T02:55:48;30.01;54.42
68867;SHT30;56451;44.804;20.476;2023-07-13T02:58:14;29.95;54.64
68867;SHT30;56451;44.804;20.476;2023-07-13T03:00:46;29.92;54.75
68867;SHT30;56451;44.804;20.476;2023-07-13T03:03:16;29.92;54.85
68867;SHT30;56451;44.804;20.476;2023-07-13T03:05:43;29.92;54.96
68867;SHT30;56451;44.804;20.476;2023-07-13T03:08:11;29.88;54.95
68867;SHT30;56451;44.804;20.476;2023-07-13T03:10:38;29.88;54.98
68867;SHT30;56451;44.804;20.476;2023-07-13T03:13:07;29.86;54.75
68867;SHT30;56451;44.804;20.476;2023-07-13T03:15:33;29.88;54.87
68867;SHT30;56451;44.804;20.476;2023-07-13T03:17:59;29.84;54.87
68867;SHT30;56451;44.804;20.476;2023-07-13T03:20:25;29.84;55.15
68867;SHT30;56451;44.804;20.476;2023-07-13T03:22:51;29.84;54.76
68867;SHT30;56451;44.804;20.476;2023-07-13T03:25:18;29.82;54.70
68867;SHT30;56451;44.804;20.476;2023-07-13T03:27:43;29.79;55.26
68867;SHT30;56451;44.804;20.476;2023-07-13T03:30:09;29.81;54.86
68867;SHT30;56451;44.804;20.476;2023-07-13T03:32:36;29.82;54.79
68867;SHT30;56451;44.804;20.476;2023-07-13T03:35:02;29.78;55.16
68867;SHT30;56451;44.804;20.476;2023-07-13T03:37:30;29.78;55.01
68867;SHT30;56451;44.804;20.476;2023-07-13T03:39:57;29.78;54.96
68867;SHT30;56451;44.804;20.476;2023-07-13T03:42:23;29.78;55.18
68867;SHT30;56451;44.804;20.476;2023-07-13T03:44:48;29.74;55.16
68867;SHT30;56451;44.804;20.476;2023-07-13T03:47:18;29.77;54.82
68867;SHT30;56451;44.804;20.476;2023-07-13T03:49:45;29.75;55.23
68867;SHT30;56451;44.804;20.476;2023-07-13T03:52:11;29.78;55.06
68867;SHT30;56451;44.804;20.476;2023-07-13T03:54:37;29.77;54.73
68867;SHT30;56451;44.804;20.476;2023-07-13T03:57:05;29.77;54.49
68867;SHT30;56451;44.804;20.476;2023-07-13T03:59:34;29.77;54.19
68867;SHT30;56451;44.804;20.476;2023-07-13T04:02:01;29.72;53.91
68867;SHT30;56451;44.804;20.476;2023-07-13T04:04:27;29.72;53.45
68867;SHT30;56451;44.804;20.476;2023-07-13T04:06:53;29.78;53.03
68867;SHT30;56451;44.804;20.476;2023-07-13T04:09:19;29.78;52.77
68867;SHT30;56451;44.804;20.476;2023-07-13T04:11:45;29.78;52.50
68867;SHT30;56451;44.804;20.476;2023-07-13T04:14:10;29.79;52.28
68867;SHT30;56451;44.804;20.476;2023-07-13T04:16:36;29.79;51.66
68867;SHT30;56451;44.804;20.476;2023-07-13T04:19:02;29.79;51.43
68867;SHT30;56451;44.804;20.476;2023-07-13T04:21:30;29.79;50.97
68867;SHT30;56451;44.804;20.476;2023-07-13T04:23:56;29.79;50.73
68867;SHT30;56451;44.804;20.476;2023-07-13T04:26:22;29.79;50.81
68867;SHT30;56451;44.804;20.476;2023-07-13T04:28:50;29.81;50.60
68867;SHT30;56451;44.804;20.476;2023-07-13T04:31:16;29.81;49.91
68867;SHT30;56451;44.804;20.476;2023-07-13T04:33:42;29.82;49.84
68867;SHT30;56451;44.804;20.476;2023-07-13T04:36:09;29.81;49.51
68867;SHT30;56451;44.804;20.476;2023-07-13T04:38:35;29.86;49.32
68867;SHT30;56451;44.804;20.476;2023-07-13T04:41:04;29.85;48.77
68867;SHT30;56451;44.804;20.476;2023-07-13T04:43:32;29.88;49.19
68867;SHT30;56451;44.804;20.476;2023-07-13T04:46:07;29.88;48.39
68867;SHT30;56451;44.804;20.476;2023-07-13T04:48:33;29.90;47.85
68867;SHT30;56451;44.804;20.476;2023-07-13T04:51:00;29.93;48.04
68867;SHT30;56451;44.804;20.476;2023-07-13T04:53:27;29.98;47.05
68867;SHT30;56451;44.804;20.476;2023-07-13T04:55:53;29.98;47.76
68867;SHT30;56451;44.804;20.476;2023-07-13T04:58:21;29.99;47.34
68867;SHT30;56451;44.804;20.476;2023-07-13T05:00:47;30.05;46.94
68867;SHT30;56451;44.804;20.476;2023-07-13T05:03:13;30.05;46.12
68867;SHT30;56451;44.804;20.476;2023-07-13T05:05:38;30.06;45.72
68867;SHT30;56451;44.804;20.476;2023-07-13T05:08:04;30.12;45.61
68867;SHT30;56451;44.804;20.476;2023-07-13T05:10:30;30.15;45.74
68867;SHT30;56451;44.804;20.476;2023-07-13T05:12:56;30.16;45.79
68867;SHT30;56451;44.804;20.476;2023-07-13T05:15:22;30.20;45.90
68867;SHT30;56451;44.804;20.476;2023-07-13T05:17:49;30.23;45.71
68867;SHT30;56451;44.804;20.476;2023-07-13T05:20:15;30.23;45.90
68867;SHT30;56451;44.804;20.476;2023-07-13T05:22:42;30.26;45.82
68867;SHT30;56451;44.804;20.476;2023-07-13T05:25:08;30.27;46.02
68867;SHT30;56451;44.804;20.476;2023-07-13T05:27:35;30.30;45.98
68867;SHT30;56451;44.804;20.476;2023-07-13T05:30:02;30.30;45.94
68867;SHT30;56451;44.804;20.476;2023-07-13T05:32:30;30.36;45.91
68867;SHT30;56451;44.804;20.476;2023-07-13T05:34:55;30.37;45.18
68867;SHT30;56451;44.804;20.476;2023-07-13T05:37:21;30.41;45.60
68867;SHT30;56451;44.804;20.476;2023-07-13T05:39:47;30.44;45.37
68867;SHT30;56451;44.804;20.476;2023-07-13T05:42:13;30.46;44.54
68867;SHT30;56451;44.804;20.476;2023-07-13T05:44:39;30.57;43.78
68867;SHT30;56451;44.804;20.476;2023-07-13T05:47:05;30.57;43.93
68867;SHT30;56451;44.804;20.476;2023-07-13T05:49:31;30.64;43.89
68867;SHT30;56451;44.804;20.476;2023-07-13T05:51:57;30.64;43.58
68867;SHT30;56451;44.804;20.476;2023-07-13T05:54:23;30.68;43.15
68867;SHT30;56451;44.804;20.476;2023-07-13T05:56:49;30.70;43.11
68867;SHT30;56451;44.804;20.476;2023-07-13T05:59:14;30.73;43.74
68867;SHT30;56451;44.804;20.476;2023-07-13T06:01:41;30.80;43.40
68867;SHT30;56451;44.804;20.476;2023-07-13T06:04:07;30.84;42.24
68867;SHT30;56451;44.804;20.476;2023-07-13T06:06:33;30.88;42.64
68867;SHT30;56451;44.804;20.476;2023-07-13T06:08:58;30.83;41.65
68867;SHT30;56451;44.804;20.476;2023-07-13T06:11:26;30.81;42.74
68867;SHT30;56451;44.804;20.476;2023-07-13T06:13:53;30.81;42.07
68867;SHT30;56451;44.804;20.476;2023-07-13T06:16:19;30.81;42.49
68867;SHT30;56451;44.804;20.476;2023-07-13T06:18:45;30.78;42.40
68867;SHT30;56451;44.804;20.476;2023-07-13T06:21:16;30.75;42.72
68867;SHT30;56451;44.804;20.476;2023-07-13T06:23:43;30.77;42.49
68867;SHT30;56451;44.804;20.476;2023-07-13T06:26:10;30.77;42.73
68867;SHT30;56451;44.804;20.476;2023-07-13T06:28:37;30.77;43.00
68867;SHT30;56451;44.804;20.476;2023-07-13T06:31:06;30.74;43.01
68867;SHT30;56451;44.804;20.476;2023-07-13T06:33:33;30.74;43.03
68867;SHT30;56451;44.804;20.476;2023-07-13T06:35:58;30.77;42.86
68867;SHT30;56451;44.804;20.476;2023-07-13T06:38:24;30.83;42.86
68867;SHT30;56451;44.804;20.476;2023-07-13T06:40:50;30.87;41.99
68867;SHT30;56451;44.804;20.476;2023-07-13T06:43:16;30.88;41.91
68867;SHT30;56451;44.804;20.476;2023-07-13T06:45:45;30.98;41.31
68867;SHT30;56451;44.804;20.476;2023-07-13T06:48:13;30.96;42.02
68867;SHT30;56451;44.804;20.476;2023-07-13T06:50:40;30.99;41.58
68867;SHT30;56451;44.804;20.476;2023-07-13T06:53:06;31.05;41.35
68867;SHT30;56451;44.804;20.476;2023-07-13T06:55:32;31.14;40.83
68867;SHT30;56451;44.804;20.476;2023-07-13T06:57:58;31.19;41.06
68867;SHT30;56451;44.804;20.476;2023-07-13T07:00:24;31.26;41.20
68867;SHT30;56451;44.804;20.476;2023-07-13T07:02:50;31.29;40.59
68867;SHT30;56451;44.804;20.476;2023-07-13T07:05:16;31.32;40.58
68867;SHT30;56451;44.804;20.476;2023-07-13T07:07:42;31.32;40.33
68867;SHT30;56451;44.804;20.476;2023-07-13T07:10:08;31.35;40.04
68867;SHT30;56451;44.804;20.476;2023-07-13T07:12:34;31.35;40.14
68867;SHT30;56451;44.804;20.476;2023-07-13T07:15:00;31.42;40.33
68867;SHT30;56451;44.804;20.476;2023-07-13T07:17:26;31.43;39.87
68867;SHT30;56451;44.804;20.476;2023-07-13T07:19:52;31.43;39.05
68867;SHT30;56451;44.804;20.476;2023-07-13T07:22:20;31.50;40.21
68867;SHT30;56451;44.804;20.476;2023-07-13T07:24:46;31.47;39.55
68867;SHT30;56451;44.804;20.476;2023-07-13T07:27:12;31.47;39.09
68867;SHT30;56451;44.804;20.476;2023-07-13T07:29:38;31.46;39.47
68867;SHT30;56451;44.804;20.476;2023-07-13T07:32:04;31.52;39.64
68867;SHT30;56451;44.804;20.476;2023-07-13T07:34:31;31.60;39.67
68867;SHT30;56451;44.804;20.476;2023-07-13T07:37:00;31.63;38.54
68867;SHT30;56451;44.804;20.476;2023-07-13T07:39:26;31.69;39.05
68867;SHT30;56451;44.804;20.476;2023-07-13T07:41:53;31.73;39.03
68867;SHT30;56451;44.804;20.476;2023-07-13T07:44:18;31.79;39.24
68867;SHT30;56451;44.804;20.476;2023-07-13T07:46:44;31.83;39.33
68867;SHT30;56451;44.804;20.476;2023-07-13T07:49:10;31.86;39.76
68867;SHT30;56451;44.804;20.476;2023-07-13T07:51:37;31.89;40.78
68867;SHT30;56451;44.804;20.476;2023-07-13T07:54:03;31.89;40.94
68867;SHT30;56451;44.804;20.476;2023-07-13T07:56:30;31.93;40.35
68867;SHT30;56451;44.804;20.476;2023-07-13T07:58:56;31.97;40.34
68867;SHT30;56451;44.804;20.476;2023-07-13T08:01:23;32.00;39.83
68867;SHT30;56451;44.804;20.476;2023-07-13T08:03:49;32.00;40.09
68867;SHT30;56451;44.804;20.476;2023-07-13T08:06:15;31.96;39.76
68867;SHT30;56451;44.804;20.476;2023-07-13T08:08:41;32.01;41.14
68867;SHT30;56451;44.804;20.476;2023-07-13T08:11:08;32.04;41.33
68867;SHT30;56451;44.804;20.476;2023-07-13T08:13:34;32.08;41.52
68867;SHT30;56451;44.804;20.476;2023-07-13T08:16:01;32.01;40.24
68867;SHT30;56451;44.804;20.476;2023-07-13T08:18:27;31.98;40.03
68867;SHT30;56451;44.804;20.476;2023-07-13T08:20:55;31.91;39.97
68867;SHT30;56451;44.804;20.476;2023-07-13T08:23:22;31.98;41.74
68867;SHT30;56451;44.804;20.476;2023-07-13T08:25:52;32.07;41.73
68867;SHT30;56451;44.804;20.476;2023-07-13T08:28:22;32.11;41.89
68867;SHT30;56451;44.804;20.476;2023-07-13T08:30:48;32.17;41.80
68867;SHT30;56451;44.804;20.476;2023-07-13T08:33:18;32.27;41.39
68867;SHT30;56451;44.804;20.476;2023-07-13T08:35:50;32.23;41.52
68867;SHT30;56451;44.804;20.476;2023-07-13T08:38:17;32.28;41.57
68867;SHT30;56451;44.804;20.476;2023-07-13T08:40:43;32.32;43.38
68867;SHT30;56451;44.804;20.476;2023-07-13T08:43:16;32.31;44.07
68867;SHT30;56451;44.804;20.476;2023-07-13T08:45:47;32.34;44.04
68867;SHT30;56451;44.804;20.476;2023-07-13T08:50:53;32.32;42.74
68867;SHT30;56451;44.804;20.476;2023-07-13T08:53:21;32.34;44.26
68867;SHT30;56451;44.804;20.476;2023-07-13T08:55:51;32.35;44.42
68867;SHT30;56451;44.804;20.476;2023-07-13T08:58:21;32.34;45.30
68867;SHT30;56451;44.804;20.476;2023-07-13T09:01:05;32.38;45.93
68867;SHT30;56451;44.804;20.476;2023-07-13T09:03:59;32.32;45.25
68867;SHT30;56451;44.804;20.476;2023-07-13T09:06:42;32.34;45.97
68867;SHT30;56451;44.804;20.476;2023-07-13T09:09:36;32.39;45.62
68867;SHT30;56451;44.804;20.476;2023-07-13T09:12:14;32.35;44.74
68867;SHT30;56451;44.804;20.476;2023-07-13T09:14:47;32.47;44.15
68867;SHT30;56451;44.804;20.476;2023-07-13T09:17:20;32.54;44.08
68867;SHT30;56451;44.804;20.476;2023-07-13T09:19:56;32.56;44.65
68867;SHT30;56451;44.804;20.476;2023-07-13T09:22:24;32.52;43.63
68867;SHT30;56451;44.804;20.476;2023-07-13T09:25:29;32.48;42.58
68867;SHT30;56451;44.804;20.476;2023-07-13T09:28:00;32.41;42.02
68867;SHT30;56451;44.804;20.476;2023-07-13T09:30:38;32.47;43.32
68867;SHT30;56451;44.804;20.476;2023-07-13T09:33:05;32.52;44.84
68867;SHT30;56451;44.804;20.476;2023-07-13T09:35:31;32.47;44.43
68867;SHT30;56451;44.804;20.476;2023-07-13T09:38:01;32.51;44.77
68867;SHT30;56451;44.804;20.476;2023-07-13T09:40:46;32.59;44.99
68867;SHT30;56451;44.804;20.476;2023-07-13T09:43:16;32.59;43.69
68867;SHT30;56451;44.804;20.476;2023-07-13T09:45:45;32.64;43.97
68867;SHT30;56451;44.804;20.476;2023-07-13T09:48:15;32.75;43.57
68867;SHT30;56451;44.804;20.476;2023-07-13T09:50:41;32.83;43.06
68867;SHT30;56451;44.804;20.476;2023-07-13T09:53:15;32.83;42.53
68867;SHT30;56451;44.804;20.476;2023-07-13T09:55:44;32.92;41.54
68867;SHT30;56451;44.804;20.476;2023-07-13T09:58:16;32.98;41.28
68867;SHT30;56451;44.804;20.476;2023-07-13T10:00:44;32.92;40.69
68867;SHT30;56451;44.804;20.476;2023-07-13T10:03:21;32.87;40.44
68867;SHT30;56451;44.804;20.476;2023-07-13T10:05:49;32.82;40.29
68867;SHT30;56451;44.804;20.476;2023-07-13T10:08:23;32.93;41.91
68867;SHT30;56451;44.804;20.476;2023-07-13T10:11:01;32.95;39.62
68867;SHT30;56451;44.804;20.476;2023-07-13T10:13:36;32.98;39.64
68867;SHT30;56451;44.804;20.476;2023-07-13T10:16:04;33.00;39.85
68867;SHT30;56451;44.804;20.476;2023-07-13T10:18:57;33.12;39.72
68867;SHT30;56451;44.804;20.476;2023-07-13T10:21:35;33.14;39.51
68867;SHT30;56451;44.804;20.476;2023-07-13T10:24:22;33.24;41.30
68867;SHT30;56451;44.804;20.476;2023-07-13T10:29:38;33.35;39.20
68867;SHT30;56451;44.804;20.476;2023-07-13T10:32:11;33.43;39.94
68867;SHT30;56451;44.804;20.476;2023-07-13T10:34:37;33.47;41.58
68867;SHT30;56451;44.804;20.476;2023-07-13T10:37:06;33.57;40.65
68867;SHT30;56451;44.804;20.476;2023-07-13T10:39:35;33.55;38.08
68867;SHT30;56451;44.804;20.476;2023-07-13T10:42:06;33.55;36.76
68867;SHT30;56451;44.804;20.476;2023-07-13T10:44:35;33.62;36.62
68867;SHT30;56451;44.804;20.476;2023-07-13T10:47:08;33.61;37.15
68867;SHT30;56451;44.804;20.476;2023-07-13T10:49:37;33.67;37.29
68867;SHT30;56451;44.804;20.476;2023-07-13T10:52:03;33.74;37.58
68867;SHT30;56451;44.804;20.476;2023-07-13T10:57:15;33.90;38.29
68867;SHT30;56451;44.804;20.476;2023-07-13T10:59:46;34.01;37.72
68867;SHT30;56451;44.804;20.476;2023-07-13T11:02:26;34.13;40.30
68867;SHT30;56451;44.804;20.476;2023-07-13T11:04:54;34.18;36.80
68867;SHT30;56451;44.804;20.476;2023-07-13T11:07:26;34.25;38.98
68867;SHT30;56451;44.804;20.476;2023-07-13T11:09:56;34.23;36.72
68867;SHT30;56451;44.804;20.476;2023-07-13T11:19:54;34.35;40.22
68867;SHT30;56451;44.804;20.476;2023-07-13T11:22:50;34.45;39.73
68867;SHT30;56451;44.804;20.476;2023-07-13T11:28:37;34.28;38.98
68867;SHT30;56451;44.804;20.476;2023-07-13T11:30:43;34.35;39.33
68867;SHT30;56451;44.804;20.476;2023-07-13T11:36:06;34.42;38.71
68867;SHT30;56451;44.804;20.476;2023-07-13T11:38:38;34.38;37.07
68867;SHT30;56451;44.804;20.476;2023-07-13T11:41:22;34.32;35.55
68867;SHT30;56451;44.804;20.476;2023-07-13T11:44:01;34.38;34.98
68867;SHT30;56451;44.804;20.476;2023-07-13T11:46:28;34.43;34.01
68867;SHT30;56451;44.804;20.476;2023-07-13T11:48:54;34.43;34.80
68867;SHT30;56451;44.804;20.476;2023-07-13T11:53:53;34.31;35.45
68867;SHT30;56451;44.804;20.476;2023-07-13T11:56:19;34.38;35.41
68867;SHT30;56451;44.804;20.476;2023-07-13T11:58:52;34.42;35.86
68867;SHT30;56451;44.804;20.476;2023-07-13T12:01:29;34.57;35.37
68867;SHT30;56451;44.804;20.476;2023-07-13T12:04:03;34.66;35.31
68867;SHT30;56451;44.804;20.476;2023-07-13T12:06:36;34.70;34.91
68867;SHT30;56451;44.804;20.476;2023-07-13T12:09:14;34.64;34.99
68867;SHT30;56451;44.804;20.476;2023-07-13T12:11:44;34.59;35.14
68867;SHT30;56451;44.804;20.476;2023-07-13T12:14:16;34.50;35.10
68867;SHT30;56451;44.804;20.476;2023-07-13T12:16:43;34.53;35.60
68867;SHT30;56451;44.804;20.476;2023-07-13T12:19:25;34.52;35.26
68867;SHT30;56451;44.804;20.476;2023-07-13T12:21:58;34.57;35.85
68867;SHT30;56451;44.804;20.476;2023-07-13T12:24:25;34.67;35.42
68867;SHT30;56451;44.804;20.476;2023-07-13T12:26:58;34.71;35.51
68867;SHT30;56451;44.804;20.476;2023-07-13T12:29:25;34.70;33.91
68867;SHT30;56451;44.804;20.476;2023-07-13T12:31:51;34.74;34.95
68867;SHT30;56451;44.804;20.476;2023-07-13T12:34:22;34.71;35.05
68867;SHT30;56451;44.804;20.476;2023-07-13T12:36:53;34.68;35.21
68867;SHT30;56451;44.804;20.476;2023-07-13T12:41:48;34.82;34.32
68867;SHT30;56451;44.804;20.476;2023-07-13T12:44:16;34.86;33.27
68867;SHT30;56451;44.804;20.476;2023-07-13T12:46:57;35.04;33.63
68867;SHT30;56451;44.804;20.476;2023-07-13T12:49:28;35.23;34.00
68867;SHT30;56451;44.804;20.476;2023-07-13T12:51:57;35.38;33.42
68867;SHT30;56451;44.804;20.476;2023-07-13T12:54:25;35.44;33.86
68867;SHT30;56451;44.804;20.476;2023-07-13T12:56:53;35.35;34.04
68867;SHT30;56451;44.804;20.476;2023-07-13T12:59:21;35.31;33.92
68867;SHT30;56451;44.804;20.476;2023-07-13T13:01:48;35.23;34.05
68867;SHT30;56451;44.804;20.476;2023-07-13T13:04:15;35.17;34.08
68867;SHT30;56451;44.804;20.476;2023-07-13T13:06:41;35.18;33.70
68867;SHT30;56451;44.804;20.476;2023-07-13T13:09:15;35.28;33.79
68867;SHT30;56451;44.804;20.476;2023-07-13T13:11:42;35.42;33.53
68867;SHT30;56451;44.804;20.476;2023-07-13T13:14:08;35.58;33.00
68867;SHT30;56451;44.804;20.476;2023-07-13T13:16:38;35.75;32.29
68867;SHT30;56451;44.804;20.476;2023-07-13T13:19:15;35.94;31.61
68867;SHT30;56451;44.804;20.476;2023-07-13T13:21:43;36.10;30.95
68867;SHT30;56451;44.804;20.476;2023-07-13T13:24:14;36.29;30.60
68867;SHT30;56451;44.804;20.476;2023-07-13T13:26:41;36.31;30.67
68867;SHT30;56451;44.804;20.476;2023-07-13T13:29:15;36.33;30.98
68867;SHT30;56451;44.804;20.476;2023-07-13T13:31:43;36.38;30.83
68867;SHT30;56451;44.804;20.476;2023-07-13T13:34:13;36.43;32.90
68867;SHT30;56451;44.804;20.476;2023-07-13T13:36:40;36.50;34.02
68867;SHT30;56451;44.804;20.476;2023-07-13T13:39:22;36.45;33.65
68867;SHT30;56451;44.804;20.476;2023-07-13T13:41:51;36.33;35.37
68867;SHT30;56451;44.804;20.476;2023-07-13T13:44:17;36.31;35.27
68867;SHT30;56451;44.804;20.476;2023-07-13T13:46:46;36.36;37.17
68867;SHT30;56451;44.804;20.476;2023-07-13T13:49:15;36.38;35.94
68867;SHT30;56451;44.804;20.476;2023-07-13T13:51:43;36.40;36.07
68867;SHT30;56451;44.804;20.476;2023-07-13T13:54:13;36.44;36.51
68867;SHT30;56451;44.804;20.476;2023-07-13T13:56:44;36.41;37.56
68867;SHT30;56451;44.804;20.476;2023-07-13T13:59:11;36.44;37.02
68867;SHT30;56451;44.804;20.476;2023-07-13T14:01:38;36.36;37.23
68867;SHT30;56451;44.804;20.476;2023-07-13T14:04:04;36.27;38.11
68867;SHT30;56451;44.804;20.476;2023-07-13T14:06:32;36.20;38.32
68867;SHT30;56451;44.804;20.476;2023-07-13T14:09:00;36.11;38.50
68867;SHT30;56451;44.804;20.476;2023-07-13T14:11:25;36.03;38.30
68867;SHT30;56451;44.804;20.476;2023-07-13T14:13:54;36.04;38.59
68867;SHT30;56451;44.804;20.476;2023-07-13T14:16:24;36.04;38.27
68867;SHT30;56451;44.804;20.476;2023-07-13T14:18:53;36.06;37.75
68867;SHT30;56451;44.804;20.476;2023-07-13T14:21:21;36.10;37.74
68867;SHT30;56451;44.804;20.476;2023-07-13T14:23:48;36.16;37.50
68867;SHT30;56451;44.804;20.476;2023-07-13T14:26:17;36.21;37.38
68867;SHT30;56451;44.804;20.476;2023-07-13T14:28:46;36.26;36.78
68867;SHT30;56451;44.804;20.476;2023-07-13T14:31:14;36.27;36.74
68867;SHT30;56451;44.804;20.476;2023-07-13T14:33:40;36.23;37.06
68867;SHT30;56451;44.804;20.476;2023-07-13T14:38:48;36.26;36.62
68867;SHT30;56451;44.804;20.476;2023-07-13T14:41:15;36.27;36.42
68867;SHT30;56451;44.804;20.476;2023-07-13T14:43:41;36.36;36.23
68867;SHT30;56451;44.804;20.476;2023-07-13T14:46:18;36.31;36.25
68867;SHT30;56451;44.804;20.476;2023-07-13T14:48:46;36.29;37.17
68867;SHT30;56451;44.804;20.476;2023-07-13T14:51:12;36.33;37.11
68867;SHT30;56451;44.804;20.476;2023-07-13T14:53:38;36.29;37.34
68867;SHT30;56451;44.804;20.476;2023-07-13T14:56:13;36.31;36.86
68867;SHT30;56451;44.804;20.476;2023-07-13T14:58:41;36.20;36.31
68867;SHT30;56451;44.804;20.476;2023-07-13T15:01:12;36.16;36.79
68867;SHT30;56451;44.804;20.476;2023-07-13T15:03:45;36.15;37.01
68867;SHT30;56451;44.804;20.476;2023-07-13T15:06:12;36.26;36.93
68867;SHT30;56451;44.804;20.476;2023-07-13T15:08:39;36.33;37.08
68867;SHT30;56451;44.804;20.476;2023-07-13T15:11:09;36.36;36.58
68867;SHT30;56451;44.804;20.476;2023-07-13T15:13:40;36.31;36.24
68867;SHT30;56451;44.804;20.476;2023-07-13T15:16:17;36.44;36.18
68867;SHT30;56451;44.804;20.476;2023-07-13T15:18:45;36.44;36.00
68867;SHT30;56451;44.804;20.476;2023-07-13T15:21:14;36.45;35.85
68867;SHT30;56451;44.804;20.476;2023-07-13T15:23:43;36.47;35.63
68867;SHT30;56451;44.804;20.476;2023-07-13T15:26:13;36.44;35.37
68867;SHT30;56451;44.804;20.476;2023-07-13T15:28:41;36.40;35.10
68867;SHT30;56451;44.804;20.476;2023-07-13T15:31:22;36.47;35.89
68867;SHT30;56451;44.804;20.476;2023-07-13T15:33:51;36.47;35.45
68867;SHT30;56451;44.804;20.476;2023-07-13T15:36:19;36.48;34.72
68867;SHT30;56451;44.804;20.476;2023-07-13T15:38:47;36.54;36.13
68867;SHT30;56451;44.804;20.476;2023-07-13T15:41:23;36.58;35.61
68867;SHT30;56451;44.804;20.476;2023-07-13T15:43:54;36.55;35.90
68867;SHT30;56451;44.804;20.476;2023-07-13T15:46:22;36.61;35.96
68867;SHT30;56451;44.804;20.476;2023-07-13T15:48:50;36.60;35.83
68867;SHT30;56451;44.804;20.476;2023-07-13T15:51:29;36.66;35.79
68867;SHT30;56451;44.804;20.476;2023-07-13T15:53:58;36.58;35.39
68867;SHT30;56451;44.804;20.476;2023-07-13T15:56:27;36.51;35.69
68867;SHT30;56451;44.804;20.476;2023-07-13T15:58:54;36.47;35.78